Time,TemperatureF,DewpointF,PressureIn,WindDirection,WindDirectionDegrees,WindSpeedMPH,WindSpeedGustMPH,Humidity,HourlyPrecipIn,Conditions,Clouds,dailyrainin,SoftwareType,DateUTC
2013-04-09 00:03:00,63.0,52.0,30.02,SSW,210,8.0,-999.0,67,-99.99,,,-99.99,,2013-04-09 04:03:00,
2013-04-09 00:13:00,63.0,52.0,30.02,SSW,210,7.0,-999.0,67,-99.99,,,-99.99,,2013-04-09 04:13:00,
2013-04-09 00:23:00,63.0,54.0,30.02,SSW,210,6.0,-999.0,72,-99.99,,,-99.99,,2013-04-09 04:23:00,
2013-04-09 00:32:00,63.0,52.0,30.02,SSW,210,9.0,-999.0,67,-99.99,,,-99.99,,2013-04-09 04:32:00,
2013-04-09 00:42:00,63.0,52.0,30.01,SSW,200,9.0,-999.0,67,-99.99,,,-99.99,,2013-04-09 04:42:00,
2013-04-09 00:52:00,63.0,52.0,30.01,SSW,200,9.0,-999.0,67,-99.99,,,-99.99,,2013-04-09 04:52:00,
2013-04-09 01:02:00,63.0,52.0,30.01,SW,220,13.0,-999.0,67,-99.99,,,-99.99,,2013-04-09 05:02:00,
2013-04-09 01:12:00,64.0,54.0,30.01,SW,220,10.0,-999.0,67,-99.99,,,-99.99,,2013-04-09 05:12:00,
2013-04-09 01:22:00,64.0,54.0,30.01,SW,220,9.0,16.0,67,-99.99,,,-99.99,,2013-04-09 05:22:00,
2013-04-09 01:32:00,64.0,54.0,30.00,SW,230,9.0,-999.0,67,-99.99,,,-99.99,,2013-04-09 05:32:00,
2013-04-09 01:43:00,64.0,54.0,30.00,SW,230,14.0,18.0,67,-99.99,,,-99.99,,2013-04-09 05:43:00,
2013-04-09 01:52:00,66.0,54.0,30.00,WSW,240,8.0,-999.0,63,-99.99,,,-99.99,,2013-04-09 05:52:00,
2013-04-09 02:02:00,66.0,54.0,30.00,WSW,240,8.0,-999.0,63,-99.99,,,-99.99,,2013-04-09 06:02:00,
2013-04-09 02:12:00,64.0,54.0,30.00,SW,220,13.0,20.0,67,-99.99,,,-99.99,,2013-04-09 06:12:00,
2013-04-09 02:22:00,66.0,54.0,30.00,WSW,250,10.0,21.0,63,-99.99,,,-99.99,,2013-04-09 06:22:00,
2013-04-09 02:32:00,66.0,54.0,29.99,WSW,240,13.0,-999.0,63,-99.99,,,-99.99,,2013-04-09 06:32:00,
2013-04-09 02:42:00,64.0,54.0,29.99,WSW,240,15.0,-999.0,67,-99.99,,,-99.99,,2013-04-09 06:42:00,
2013-04-09 02:52:00,66.0,54.0,29.99,SW,230,12.0,21.0,63,-99.99,,,-99.99,,2013-04-09 06:52:00,
2013-04-09 03:02:00,66.0,54.0,29.99,SW,230,12.0,21.0,63,-99.99,,,-99.99,,2013-04-09 07:02:00,
2013-04-09 03:13:00,66.0,54.0,29.99,WSW,250,9.0,17.0,63,-99.99,,,-99.99,,2013-04-09 07:13:00,
2013-04-09 03:22:00,66.0,55.0,29.98,WSW,250,12.0,20.0,68,-99.99,,,-99.99,,2013-04-09 07:22:00,
2013-04-09 03:32:00,64.0,55.0,29.98,WSW,240,16.0,18.0,72,-99.99,,,-99.99,,2013-04-09 07:32:00,
2013-04-09 03:42:00,64.0,55.0,29.98,WSW,240,14.0,18.0,72,-99.99,,,-99.99,,2013-04-09 07:42:00,
2013-04-09 03:52:00,64.0,55.0,29.98,SW,230,10.0,17.0,72,-99.99,,,-99.99,,2013-04-09 07:52:00,
2013-04-09 04:03:00,64.0,55.0,29.98,SW,230,10.0,17.0,72,-99.99,,,-99.99,,2013-04-09 08:03:00,
2013-04-09 04:12:00,64.0,55.0,29.98,WSW,240,10.0,18.0,72,-99.99,,,-99.99,,2013-04-09 08:12:00,
2013-04-09 04:22:00,66.0,55.0,29.98,SW,230,14.0,-999.0,68,-99.99,,,-99.99,,2013-04-09 08:22:00,
2013-04-09 04:32:00,64.0,55.0,29.99,WSW,250,12.0,20.0,72,-99.99,,,-99.99,,2013-04-09 08:32:00,
2013-04-09 04:42:00,64.0,55.0,29.99,WSW,240,16.0,20.0,72,-99.99,,,-99.99,,2013-04-09 08:42:00,
2013-04-09 04:52:00,64.0,55.0,29.99,WSW,240,13.0,17.0,72,-99.99,,,-99.99,,2013-04-09 08:52:00,
2013-04-09 05:02:00,64.0,55.0,29.99,WSW,240,13.0,17.0,72,-99.99,,,-99.99,,2013-04-09 09:02:00,
2013-04-09 05:12:00,63.0,54.0,30.00,WSW,250,5.0,-999.0,72,-99.99,,,-99.99,,2013-04-09 09:12:00,
2013-04-09 05:22:00,63.0,54.0,30.00,WSW,250,8.0,-999.0,72,-99.99,,,-99.99,,2013-04-09 09:22:00,
2013-04-09 05:33:00,63.0,54.0,30.00,West,260,9.0,-999.0,72,-99.99,,,-99.99,,2013-04-09 09:33:00,
2013-04-09 05:43:00,63.0,54.0,30.00,WSW,240,8.0,-999.0,72,-99.99,,,-99.99,,2013-04-09 09:43:00,
2013-04-09 05:52:00,61.0,54.0,30.01,WSW,250,7.0,-999.0,77,-99.99,,,-99.99,,2013-04-09 09:52:00,
2013-04-09 06:03:00,61.0,54.0,30.01,WSW,250,7.0,-999.0,77,-99.99,,,-99.99,,2013-04-09 10:03:00,
2013-04-09 06:13:00,59.0,54.0,30.01,West,260,8.0,-999.0,82,-99.99,,,-99.99,,2013-04-09 10:13:00,
2013-04-09 06:23:00,61.0,54.0,30.01,WSW,240,7.0,-999.0,77,-99.99,,,-99.99,,2013-04-09 10:23:00,
2013-04-09 06:33:00,59.0,54.0,30.02,WSW,250,6.0,-999.0,82,-99.99,,,-99.99,,2013-04-09 10:33:00,
2013-04-09 06:43:00,59.0,54.0,30.02,WSW,240,7.0,-999.0,82,-99.99,,,-99.99,,2013-04-09 10:43:00,
2013-04-09 06:52:00,57.0,54.0,30.02,SW,230,7.0,-999.0,87,-99.99,,,-99.99,,2013-04-09 10:52:00,
2013-04-09 07:02:00,57.0,54.0,30.02,SW,230,7.0,-999.0,87,-99.99,,,-99.99,,2013-04-09 11:02:00,
2013-04-09 07:12:00,57.0,54.0,30.03,WSW,240,6.0,-999.0,87,-99.99,,,-99.99,,2013-04-09 11:12:00,
2013-04-09 07:22:00,59.0,54.0,30.03,SW,230,7.0,-999.0,82,-99.99,,,-99.99,,2013-04-09 11:22:00,
2013-04-09 07:32:00,57.0,54.0,30.04,WSW,240,5.0,-999.0,87,-99.99,,,-99.99,,2013-04-09 11:32:00,
2013-04-09 07:42:00,57.0,54.0,30.04,WSW,240,7.0,-999.0,87,-99.99,,,-99.99,,2013-04-09 11:42:00,
2013-04-09 07:52:00,59.0,54.0,30.04,WSW,240,6.0,-999.0,82,-99.99,,,-99.99,,2013-04-09 11:52:00,
2013-04-09 08:02:00,59.0,54.0,30.04,WSW,240,6.0,-999.0,82,-99.99,,,-99.99,,2013-04-09 12:02:00,
2013-04-09 08:12:00,59.0,54.0,30.05,West,260,7.0,-999.0,82,-99.99,,,-99.99,,2013-04-09 12:12:00,
2013-04-09 08:22:00,61.0,54.0,30.05,West,260,7.0,-999.0,77,-99.99,,,-99.99,,2013-04-09 12:22:00,
2013-04-09 08:32:00,61.0,54.0,30.05,SW,230,7.0,-999.0,77,-99.99,,,-99.99,,2013-04-09 12:32:00,
2013-04-09 08:42:00,63.0,54.0,30.05,WSW,240,8.0,-999.0,72,-99.99,,,-99.99,,2013-04-09 12:42:00,
2013-04-09 08:52:00,63.0,54.0,30.05,West,270,8.0,-999.0,72,-99.99,,,-99.99,,2013-04-09 12:52:00,
2013-04-09 09:03:00,63.0,54.0,30.05,West,270,8.0,-999.0,72,-99.99,,,-99.99,,2013-04-09 13:03:00,
2013-04-09 09:12:00,64.0,54.0,30.05,West,260,13.0,-999.0,67,-99.99,,,-99.99,,2013-04-09 13:12:00,
2013-04-09 09:23:00,66.0,54.0,30.05,West,270,10.0,-999.0,63,-99.99,,,-99.99,,2013-04-09 13:23:00,
2013-04-09 09:33:00,66.0,54.0,30.05,WSW,250,12.0,-999.0,63,-99.99,,,-99.99,,2013-04-09 13:33:00,
2013-04-09 09:42:00,66.0,54.0,30.05,WSW,250,8.0,-999.0,63,-99.99,,,-99.99,,2013-04-09 13:42:00,
2013-04-09 09:52:00,68.0,54.0,30.05,WSW,240,9.0,-999.0,59,-99.99,,,-99.99,,2013-04-09 13:52:00,
2013-04-09 10:03:00,68.0,54.0,30.05,WSW,240,9.0,-999.0,59,-99.99,,,-99.99,,2013-04-09 14:03:00,
2013-04-09 10:12:00,70.0,54.0,30.06,West,260,13.0,-999.0,56,-99.99,,,-99.99,,2013-04-09 14:12:00,
2013-04-09 10:22:00,72.0,54.0,30.05,WSW,240,10.0,20.0,53,-99.99,,,-99.99,,2013-04-09 14:22:00,
2013-04-09 10:32:00,70.0,54.0,30.05,WSW,240,13.0,-999.0,56,-99.99,,,-99.99,,2013-04-09 14:32:00,
2013-04-09 10:42:00,72.0,54.0,30.05,West,270,12.0,17.0,53,-99.99,,,-99.99,,2013-04-09 14:42:00,
2013-04-09 10:52:00,72.0,54.0,30.05,West,260,13.0,16.0,53,-99.99,,,-99.99,,2013-04-09 14:52:00,
2013-04-09 11:02:00,72.0,54.0,30.05,West,260,13.0,16.0,53,-99.99,,,-99.99,,2013-04-09 15:02:00,
2013-04-09 11:13:00,73.0,54.0,30.05,SW,220,14.0,-999.0,49,-99.99,,,-99.99,,2013-04-09 15:13:00,
2013-04-09 11:22:00,73.0,54.0,30.05,WSW,250,14.0,18.0,49,-99.99,,,-99.99,,2013-04-09 15:22:00,
2013-04-09 11:33:00,73.0,54.0,30.05,WSW,250,16.0,20.0,49,-99.99,,,-99.99,,2013-04-09 15:33:00,
2013-04-09 11:43:00,73.0,54.0,30.04,West,260,13.0,21.0,49,-99.99,,,-99.99,,2013-04-09 15:43:00,
2013-04-09 11:53:00,75.0,54.0,30.05,West,280,15.0,18.0,46,-99.99,,,-99.99,,2013-04-09 15:53:00,
2013-04-09 12:03:00,75.0,54.0,30.05,West,280,15.0,18.0,46,-99.99,,,-99.99,,2013-04-09 16:03:00,
2013-04-09 12:13:00,75.0,54.0,30.04,WSW,250,18.0,20.0,46,-99.99,,,-99.99,,2013-04-09 16:13:00,
2013-04-09 12:23:00,79.0,54.0,30.04,WSW,240,15.0,22.0,41,-99.99,,,-99.99,,2013-04-09 16:23:00,
2013-04-09 12:33:00,77.0,54.0,30.03,WSW,240,17.0,20.0,44,-99.99,,,-99.99,,2013-04-09 16:33:00,
2013-04-09 12:42:00,77.0,54.0,30.03,SW,230,14.0,-999.0,44,-99.99,,,-99.99,,2013-04-09 16:42:00,
2013-04-09 12:53:00,77.0,54.0,30.02,WNW,290,9.0,20.0,44,-99.99,,,-99.99,,2013-04-09 16:53:00,
2013-04-09 13:02:00,77.0,54.0,30.02,WNW,290,9.0,20.0,44,-99.99,,,-99.99,,2013-04-09 17:02:00,
2013-04-09 13:13:00,79.0,54.0,30.02,SW,230,10.0,18.0,41,-99.99,,,-99.99,,2013-04-09 17:13:00,
2013-04-09 13:23:00,81.0,55.0,30.01,WSW,240,13.0,18.0,41,-99.99,,,-99.99,,2013-04-09 17:23:00,
2013-04-09 13:32:00,81.0,54.0,30.01,SW,220,8.0,18.0,39,-99.99,,,-99.99,,2013-04-09 17:32:00,
2013-04-09 13:42:00,81.0,54.0,30.01,WSW,250,14.0,18.0,39,-99.99,,,-99.99,,2013-04-09 17:42:00,
2013-04-09 13:53:00,82.0,54.0,30.01,West,260,16.0,-999.0,37,-99.99,,,-99.99,,2013-04-09 17:53:00,
2013-04-09 14:02:00,82.0,54.0,30.01,West,260,16.0,-999.0,37,-99.99,,,-99.99,,2013-04-09 18:02:00,
2013-04-09 14:13:00,82.0,54.0,30.01,West,260,7.0,20.0,37,-99.99,,,-99.99,,2013-04-09 18:13:00,
2013-04-09 14:22:00,82.0,54.0,30.00,SW,230,15.0,20.0,37,-99.99,,,-99.99,,2013-04-09 18:22:00,
2013-04-09 14:33:00,82.0,54.0,30.00,West,260,12.0,20.0,37,-99.99,,,-99.99,,2013-04-09 18:33:00,
2013-04-09 14:43:00,82.0,54.0,30.00,WSW,250,13.0,22.0,37,-99.99,,,-99.99,,2013-04-09 18:43:00,
2013-04-09 14:52:00,82.0,54.0,30.00,SW,230,9.0,18.0,37,-99.99,,,-99.99,,2013-04-09 18:52:00,
2013-04-09 15:03:00,82.0,54.0,30.00,West,270,14.0,18.0,37,-99.99,,,-99.99,,2013-04-09 19:03:00,
2013-04-09 15:12:00,82.0,54.0,30.00,West,270,14.0,18.0,37,-99.99,,,-99.99,,2013-04-09 19:12:00,
2013-04-09 15:22:00,82.0,54.0,30.00,West,270,14.0,18.0,37,-99.99,,,-99.99,,2013-04-09 19:22:00,
2013-04-09 15:32:00,82.0,54.0,29.98,WSW,240,14.0,20.0,37,-99.99,,,-99.99,,2013-04-09 19:32:00,
2013-04-09 15:42:00,82.0,54.0,29.98,WSW,240,14.0,20.0,37,-99.99,,,-99.99,,2013-04-09 19:42:00,
2013-04-09 15:53:00,82.0,54.0,29.98,WSW,240,13.0,20.0,37,-99.99,,,-99.99,,2013-04-09 19:53:00,
2013-04-09 16:02:00,82.0,54.0,29.98,WSW,250,13.0,17.0,37,-99.99,,,-99.99,,2013-04-09 20:02:00,
2013-04-09 16:12:00,82.0,54.0,29.98,WSW,240,15.0,-999.0,37,-99.99,,,-99.99,,2013-04-09 20:12:00,
2013-04-09 16:22:00,82.0,54.0,29.97,WSW,240,10.0,-999.0,37,-99.99,,,-99.99,,2013-04-09 20:22:00,
2013-04-09 16:33:00,82.0,54.0,29.97,WSW,240,15.0,-999.0,37,-99.99,,,-99.99,,2013-04-09 20:33:00,
2013-04-09 16:43:00,82.0,54.0,29.97,WSW,240,10.0,-999.0,37,-99.99,,,-99.99,,2013-04-09 20:43:00,
2013-04-09 16:52:00,82.0,54.0,29.97,WSW,240,15.0,-999.0,37,-99.99,,,-99.99,,2013-04-09 20:52:00,
2013-04-09 17:02:00,82.0,54.0,29.97,WSW,240,15.0,-999.0,37,-99.99,,,-99.99,,2013-04-09 21:02:00,
2013-04-09 17:13:00,82.0,54.0,29.97,WSW,240,9.0,-999.0,37,-99.99,,,-99.99,,2013-04-09 21:13:00,
2013-04-09 17:22:00,82.0,54.0,29.97,WSW,240,9.0,-999.0,37,-99.99,,,-99.99,,2013-04-09 21:22:00,
2013-04-09 17:33:00,82.0,54.0,29.98,West,260,9.0,-999.0,37,-99.99,,,-99.99,,2013-04-09 21:33:00,
2013-04-09 17:42:00,82.0,54.0,29.98,West,260,9.0,-999.0,37,-99.99,,,-99.99,,2013-04-09 21:42:00,
2013-04-09 17:52:00,81.0,54.0,29.98,WSW,250,8.0,-999.0,39,-99.99,,,-99.99,,2013-04-09 21:52:00,
2013-04-09 18:03:00,81.0,54.0,29.98,WSW,250,8.0,-999.0,39,-99.99,,,-99.99,,2013-04-09 22:03:00,
2013-04-09 18:13:00,81.0,54.0,29.98,West,260,6.0,-999.0,39,-99.99,,,-99.99,,2013-04-09 22:13:00,
2013-04-09 18:23:00,81.0,54.0,29.98,West,260,6.0,-999.0,39,-99.99,,,-99.99,,2013-04-09 22:23:00,
2013-04-09 18:33:00,79.0,55.0,29.98,WSW,250,6.0,-999.0,44,-99.99,,,-99.99,,2013-04-09 22:33:00,
2013-04-09 18:42:00,79.0,55.0,29.98,WSW,240,3.0,-999.0,44,-99.99,,,-99.99,,2013-04-09 22:42:00,
2013-04-09 18:53:00,77.0,55.0,29.99,WSW,250,6.0,-999.0,47,-99.99,,,-99.99,,2013-04-09 22:53:00,
2013-04-09 19:03:00,77.0,55.0,29.99,WSW,250,6.0,-999.0,47,-99.99,,,-99.99,,2013-04-09 23:03:00,
2013-04-09 19:12:00,75.0,55.0,29.98,WSW,250,5.0,-999.0,50,-99.99,,,-99.99,,2013-04-09 23:12:00,
2013-04-09 19:23:00,75.0,55.0,29.98,SW,230,3.0,-999.0,50,-99.99,,,-99.99,,2013-04-09 23:23:00,
2013-04-09 19:32:00,73.0,55.0,29.98,South,190,3.0,-999.0,53,-99.99,,,-99.99,,2013-04-09 23:32:00,
2013-04-09 19:42:00,73.0,55.0,29.98,SSW,200,3.0,-999.0,53,-99.99,,,-99.99,,2013-04-09 23:42:00,
2013-04-09 19:52:00,72.0,55.0,29.98,SSW,200,3.0,-999.0,56,-99.99,,,-99.99,,2013-04-09 23:52:00,
2013-04-09 20:03:00,72.0,55.0,29.98,SSW,200,3.0,-999.0,56,-99.99,,,-99.99,,2013-04-10 00:03:00,
2013-04-09 20:12:00,72.0,55.0,29.98,SSW,200,3.0,-999.0,56,-99.99,,,-99.99,,2013-04-10 00:12:00,
2013-04-09 20:23:00,72.0,55.0,29.98,SSW,200,3.0,-999.0,56,-99.99,,,-99.99,,2013-04-10 00:23:00,
2013-04-09 20:33:00,68.0,54.0,30.00,SSW,210,2.0,-999.0,59,-99.99,,,-99.99,,2013-04-10 00:33:00,
2013-04-09 20:42:00,68.0,54.0,30.00,SW,230,2.0,-999.0,59,-99.99,,,-99.99,,2013-04-10 00:42:00,
2013-04-09 20:53:00,66.0,55.0,30.01,WSW,250,2.0,-999.0,68,-99.99,,,-99.99,,2013-04-10 00:53:00,
2013-04-09 21:02:00,66.0,55.0,30.01,WSW,250,2.0,-999.0,68,-99.99,,,-99.99,,2013-04-10 01:02:00,
2013-04-09 21:12:00,64.0,54.0,30.01,WSW,240,3.0,-999.0,67,-99.99,,,-99.99,,2013-04-10 01:12:00,
2013-04-09 21:23:00,64.0,54.0,30.01,West,260,2.0,-999.0,67,-99.99,,,-99.99,,2013-04-10 01:23:00,
2013-04-09 21:32:00,64.0,54.0,30.01,SW,220,2.0,-999.0,67,-99.99,,,-99.99,,2013-04-10 01:32:00,
2013-04-09 21:42:00,64.0,54.0,30.01,WSW,240,1.0,-999.0,67,-99.99,,,-99.99,,2013-04-10 01:42:00,
2013-04-09 21:52:00,63.0,54.0,30.01,North,0,0.0,-999.0,72,-99.99,,,-99.99,,2013-04-10 01:52:00,
2013-04-09 22:02:00,63.0,54.0,30.01,North,0,0.0,-999.0,72,-99.99,,,-99.99,,2013-04-10 02:02:00,
2013-04-09 22:12:00,63.0,54.0,30.01,South,190,1.0,-999.0,72,-99.99,,,-99.99,,2013-04-10 02:12:00,
2013-04-09 22:22:00,63.0,54.0,30.01,SSW,200,5.0,-999.0,72,-99.99,,,-99.99,,2013-04-10 02:22:00,
2013-04-09 22:32:00,64.0,54.0,30.00,SSW,200,5.0,-999.0,67,-99.99,,,-99.99,,2013-04-10 02:32:00,
2013-04-09 22:43:00,64.0,54.0,30.00,SSW,210,3.0,-999.0,67,-99.99,,,-99.99,,2013-04-10 02:43:00,
2013-04-09 22:52:00,64.0,54.0,30.00,SSW,200,6.0,-999.0,67,-99.99,,,-99.99,,2013-04-10 02:52:00,
2013-04-09 23:03:00,64.0,54.0,30.00,SSW,200,6.0,-999.0,67,-99.99,,,-99.99,,2013-04-10 03:03:00,
2013-04-09 23:12:00,66.0,54.0,29.99,SSW,200,6.0,-999.0,63,-99.99,,,-99.99,,2013-04-10 03:12:00,
2013-04-09 23:22:00,68.0,54.0,29.98,SSW,210,6.0,-999.0,59,-99.99,,,-99.99,,2013-04-10 03:22:00,
2013-04-09 23:33:00,66.0,52.0,29.97,SSW,200,6.0,-999.0,59,-99.99,,,-99.99,,2013-04-10 03:33:00,
2013-04-09 23:43:00,66.0,52.0,29.97,South,190,7.0,-999.0,59,-99.99,,,-99.99,,2013-04-10 03:43:00,
2013-04-09 23:52:00,66.0,52.0,29.96,South,190,7.0,-999.0,59,-99.99,,,-99.99,,2013-04-10 03:52:00,